Townsend, Massachusetts
Current Conditions -  °F | °C
As of 2:52 PM on Thursday 30 Oct 2014 (Local Time) from KFIT Reporting Station
Overcast Overcast  
Wind Chill: 54°   Ceiling: 6000
Heat Index: 54°   Visibility: 10mi
Dew Point: 35°   Wind: 9mph
Humidity: 49%   Direction: 280°W
Pressure: 29.93"   Gusts: NA
Location:  42.67°N, 71.7°W
Report Text: KFIT 301852Z AUTO 28008KT 10SM OVC060 12/02 A2993 RMK AO2 SLP137 T01220017
Loading
Personal Weather Stations






























Interactive Weather Map
Tropical Storm Tracking
New forecast layout! Learn more

10-Day Weather Forecast

Advertisements
Track Severe Weather on mobile